createdAt,value
2022-10-05T00:02:23.853Z,99334.16
2022-10-05T00:04:56.089Z,99326.31
2022-10-05T00:07:23.320Z,99327.16
2022-10-05T00:10:00.250Z,99324.50
2022-10-05T00:12:29.640Z,99302.22
2022-10-05T00:15:00.320Z,99314.00
2022-10-05T00:17:30.472Z,99311.34
2022-10-05T00:19:57.067Z,99313.13
2022-10-05T00:22:31.799Z,99315.78
2022-10-05T00:25:01.128Z,99321.09
2022-10-05T00:27:38.001Z,99311.47
2022-10-05T00:30:12.946Z,99308.16
2022-10-05T00:32:40.489Z,99321.31
2022-10-05T00:35:07.681Z,99316.84
2022-10-05T00:37:34.356Z,99312.53
2022-10-05T00:40:01.503Z,99305.41
2022-10-05T00:42:55.023Z,99302.75
2022-10-05T00:45:27.430Z,99304.66
2022-10-05T00:48:12.763Z,99300.22
2022-10-05T00:50:54.521Z,99305.50
2022-10-05T00:58:30.524Z,99320.66
2022-10-05T01:01:13.069Z,99313.78
2022-10-05T01:03:57.837Z,99319.09
2022-10-05T01:06:52.355Z,99305.94
2022-10-05T01:09:41.063Z,99299.75
2022-10-05T01:12:22.112Z,99297.13
2022-10-05T01:15:03.763Z,99296.28
2022-10-05T01:17:55.332Z,99300.63
2022-10-05T01:20:53.174Z,99298.94
2022-10-05T01:23:52.872Z,99293.09
2022-10-05T01:26:42.593Z,99298.16
2022-10-05T01:29:25.495Z,99300.81
2022-10-05T01:32:00.111Z,99300.00
2022-10-05T01:34:43.704Z,99295.63
2022-10-05T01:37:26.844Z,99298.28
2022-10-05T01:40:02.674Z,99293.81
2022-10-05T01:42:29.167Z,99295.75
2022-10-05T01:45:17.030Z,99294.75
2022-10-05T01:47:55.008Z,99284.50
2022-10-05T01:50:53.972Z,99281.72
2022-10-05T01:53:29.064Z,99281.84
2022-10-05T01:56:01.564Z,99273.03
2022-10-05T01:59:05.710Z,99281.84
2022-10-05T02:01:43.113Z,99289.03
2022-10-05T02:04:59.889Z,99288.09
2022-10-05T02:07:43.742Z,99287.34
2022-10-05T02:10:19.447Z,99288.22
2022-10-05T02:12:50.437Z,99288.22
2022-10-05T02:15:24.330Z,99303.25
2022-10-05T02:17:57.531Z,99298.06
2022-10-05T02:22:42.485Z,99263.38
2022-10-05T02:25:14.373Z,99280.44
2022-10-05T02:27:51.492Z,99273.44
2022-10-05T02:30:19.418Z,99266.84
2022-10-05T02:32:58.673Z,99262.63
2022-10-05T02:35:25.961Z,99274.41
2022-10-05T02:38:11.336Z,99270.06
2022-10-05T02:40:53.659Z,99256.06
2022-10-05T02:43:20.520Z,99263.16
2022-10-05T02:46:01.595Z,99266.66
2022-10-05T02:48:44.542Z,99257.00
2022-10-05T02:51:23.088Z,99257.97
2022-10-05T02:53:59.250Z,99266.78
2022-10-05T02:56:48.781Z,99270.38
2022-10-05T02:59:35.285Z,99263.38
2022-10-05T03:02:18.371Z,99251.94
2022-10-05T03:04:59.005Z,99249.28
2022-10-05T03:07:56.452Z,99249.38
2022-10-05T03:10:42.073Z,99250.31
2022-10-05T03:13:23.908Z,99269.72
2022-10-05T03:16:15.597Z,99269.84
2022-10-05T03:18:51.229Z,99248.63
2022-10-05T03:21:53.769Z,99242.47
2022-10-05T03:24:48.487Z,99244.28
2022-10-05T03:27:38.194Z,99258.50
2022-10-05T03:30:16.142Z,99269.22
2022-10-05T03:32:43.461Z,99277.16
2022-10-05T03:35:23.537Z,99291.25
2022-10-05T03:37:56.355Z,99282.47
2022-10-05T03:40:51.941Z,99296.66
2022-10-05T03:43:34.283Z,99287.84
2022-10-05T03:46:08.617Z,99279.06
2022-10-05T03:49:13.193Z,99285.31
2022-10-05T03:51:49.556Z,99284.47
2022-10-05T03:54:28.945Z,99291.78
2022-10-05T03:57:00.359Z,99296.00
2022-10-05T04:02:06.494Z,99277.56
2022-10-05T04:04:39.733Z,99268.75
2022-10-05T04:07:21.887Z,99260.81
2022-10-05T04:09:53.003Z,99261.06
2022-10-05T04:12:35.918Z,99255.50
2022-10-05T04:15:26.007Z,99240.53
2022-10-05T04:18:00.837Z,99232.59
2022-10-05T04:20:42.866Z,99225.72
2022-10-05T04:23:39.709Z,99245.00
2022-10-05T04:26:11.441Z,99237.16
2022-10-05T04:28:41.664Z,99230.13
2022-10-05T04:31:15.795Z,99231.91
2022-10-05T04:33:59.186Z,99224.94
2022-10-05T04:36:40.540Z,99230.25
2022-10-05T04:39:34.971Z,99233.84
2022-10-05T04:42:19.639Z,99239.56
2022-10-05T04:45:07.130Z,99252.50
2022-10-05T04:47:51.535Z,99238.38
2022-10-05T04:50:37.151Z,99236.69
2022-10-05T04:53:33.391Z,99241.16
2022-10-05T04:56:20.189Z,99234.25
2022-10-05T04:59:08.460Z,99227.38
2022-10-05T05:01:59.603Z,99223.97
2022-10-05T05:04:37.712Z,99221.50
2022-10-05T05:07:41.608Z,99227.78
2022-10-05T05:10:39.663Z,99237.63
2022-10-05T05:13:41.732Z,99245.88
2022-10-05T05:16:32.658Z,99260.28
2022-10-05T05:19:14.860Z,99239.28
2022-10-05T05:22:01.223Z,99238.09
2022-10-05T05:24:59.910Z,99243.84
2022-10-05T05:27:45.456Z,99237.78
2022-10-05T05:30:41.603Z,99234.38
2022-10-05T05:33:19.203Z,99236.38
2022-10-05T05:35:56.516Z,99257.41
2022-10-05T05:38:48.883Z,99257.41
2022-10-05T05:41:39.443Z,99252.09
2022-10-05T05:44:18.480Z,99243.28
2022-10-05T05:47:03.383Z,99241.50
2022-10-05T05:50:07.345Z,99239.69
2022-10-05T05:52:43.020Z,99229.97
2022-10-05T05:55:20.886Z,99204.19
2022-10-05T05:58:16.979Z,99215.84
2022-10-05T06:00:55.752Z,99219.38
2022-10-05T06:03:31.736Z,99229.00
2022-10-05T06:06:04.677Z,99247.56
2022-10-05T06:08:48.526Z,99251.03
2022-10-05T06:11:31.811Z,99253.69
2022-10-05T06:14:05.204Z,99258.97
2022-10-05T06:16:33.715Z,99267.75
2022-10-05T06:19:13.958Z,99271.28
2022-10-05T06:21:47.813Z,99261.63
2022-10-05T06:24:29.785Z,99276.47
2022-10-05T06:27:24.640Z,99280.06
2022-10-05T06:29:59.041Z,99273.94
2022-10-05T06:32:32.267Z,99274.59
2022-10-05T06:35:17.297Z,99276.19
2022-10-05T06:38:12.875Z,99276.81
2022-10-05T06:40:58.653Z,99279.25
2022-10-05T06:43:43.347Z,99278.31
2022-10-05T06:46:31.249Z,99267.53
2022-10-05T06:49:45.507Z,99264.88
2022-10-05T06:52:46.504Z,99248.88
2022-10-05T06:55:23.184Z,99250.66
2022-10-05T06:57:58.756Z,99254.06
2022-10-05T07:00:54.158Z,99274.13
2022-10-05T07:03:35.440Z,99282.06
2022-10-05T07:06:16.857Z,99286.38
2022-10-05T07:08:54.352Z,99274.00
2022-10-05T07:11:33.428Z,99269.19
2022-10-05T07:14:14.437Z,99279.09
2022-10-05T07:16:50.741Z,99270.28
2022-10-05T07:19:29.497Z,99270.94
2022-10-05T07:24:45.228Z,99239.16
2022-10-05T07:27:11.838Z,99260.38
2022-10-05T07:29:41.486Z,99259.25
2022-10-05T07:32:24.586Z,99259.78
2022-10-05T07:35:37.674Z,99259.53
2022-10-05T07:38:32.600Z,99264.66
2022-10-05T07:41:13.497Z,99264.44
2022-10-05T07:44:02.818Z,99259.78
2022-10-05T07:46:43.734Z,99255.84
2022-10-05T07:49:33.786Z,99255.75
2022-10-05T07:52:02.961Z,99262.63
2022-10-05T07:54:45.387Z,99266.03
2022-10-05T07:57:30.521Z,99264.22
2022-10-05T08:00:05.673Z,99258.84
2022-10-05T08:02:58.464Z,99263.16
2022-10-05T08:05:42.240Z,99267.50
2022-10-05T08:08:52.414Z,99259.47
2022-10-05T08:11:30.363Z,99251.53
2022-10-05T08:14:10.702Z,99256.81
2022-10-05T08:16:38.560Z,99257.53
2022-10-05T08:19:24.480Z,99251.41
2022-10-05T08:21:58.408Z,99247.81
2022-10-05T08:24:39.151Z,99254.69
2022-10-05T08:27:15.721Z,99246.63
2022-10-05T08:30:04.296Z,99246.81
2022-10-05T08:32:38.545Z,99246.50
2022-10-05T08:35:25.020Z,99256.16
2022-10-05T08:37:52.704Z,99252.69
2022-10-05T08:40:19.162Z,99257.88
2022-10-05T08:43:05.765Z,99266.66
2022-10-05T08:45:50.832Z,99272.72
2022-10-05T08:48:42.242Z,99267.41
2022-10-05T08:51:33.567Z,99261.16
2022-10-05T08:54:18.452Z,99264.66
2022-10-05T08:56:58.799Z,99262.00
2022-10-05T08:59:40.748Z,99247.78
2022-10-05T09:02:38.977Z,99244.19
2022-10-05T09:05:31.041Z,99251.19
2022-10-05T09:08:15.670Z,99253.72
2022-10-05T09:11:03.795Z,99250.94
2022-10-05T09:13:33.346Z,99256.25
2022-10-05T09:16:38.467Z,99258.81
2022-10-05T09:19:43.813Z,99269.34
2022-10-05T09:22:32.091Z,99282.50
2022-10-05T09:25:09.816Z,99274.53
2022-10-05T09:27:39.001Z,99264.78
2022-10-05T09:30:33.389Z,99256.72
2022-10-05T09:33:21.152Z,99260.22
2022-10-05T09:36:21.834Z,99252.25
2022-10-05T09:39:17.669Z,99256.63
2022-10-05T09:42:13.258Z,99257.44
2022-10-05T09:45:07.433Z,99251.31
2022-10-05T09:47:41.365Z,99258.31
2022-10-05T09:50:32.665Z,99260.97
2022-10-05T09:53:35.080Z,99265.31
2022-10-05T09:56:21.283Z,99258.06
2022-10-05T09:59:09.770Z,99253.63
2022-10-05T10:01:54.842Z,99258.06
2022-10-05T10:04:50.372Z,99249.28
2022-10-05T10:07:21.111Z,99256.28
2022-10-05T10:09:59.818Z,99252.78
2022-10-05T10:12:53.551Z,99250.13
2022-10-05T10:15:32.079Z,99252.78
2022-10-05T10:18:35.436Z,99245.78
2022-10-05T10:21:17.235Z,99252.06
2022-10-05T10:23:59.034Z,99243.13
2022-10-05T10:26:59.636Z,99243.03
2022-10-05T10:30:03.864Z,99242.28
2022-10-05T10:33:15.464Z,99246.63
2022-10-05T10:35:55.382Z,99243.84
2022-10-05T10:38:30.918Z,99238.44
2022-10-05T10:41:06.755Z,99248.84
2022-10-05T10:43:51.598Z,99242.47
2022-10-05T10:46:18.172Z,99245.88
2022-10-05T10:49:29.815Z,99252.00
2022-10-05T10:52:10.290Z,99232.50
2022-10-05T10:54:42.702Z,99247.22
2022-10-05T10:57:17.766Z,99230.34
2022-10-05T11:00:03.608Z,99227.47
2022-10-05T11:02:54.525Z,99233.50
2022-10-05T11:05:50.281Z,99239.56
2022-10-05T11:08:20.097Z,99237.75
2022-10-05T11:11:22.514Z,99242.00
2022-10-05T11:13:52.552Z,99246.34
2022-10-05T11:16:25.052Z,99238.28
2022-10-05T11:19:10.198Z,99242.53
2022-10-05T11:22:14.822Z,99238.91
2022-10-05T11:25:00.261Z,99230.97
2022-10-05T11:27:50.197Z,99236.97
2022-10-05T11:31:01.599Z,99227.22
2022-10-05T11:33:52.704Z,99229.75
2022-10-05T11:36:34.531Z,99222.63
2022-10-05T11:39:30.438Z,99222.53
2022-10-05T11:42:15.855Z,99222.44
2022-10-05T11:45:06.111Z,99233.78
2022-10-05T11:47:45.587Z,99223.06
2022-10-05T11:50:26.749Z,99223.06
2022-10-05T11:52:53.317Z,99231.84
2022-10-05T11:55:29.394Z,99223.69
2022-10-05T11:57:58.361Z,99218.38
2022-10-05T12:00:27.817Z,99220.78
2022-10-05T12:03:09.292Z,99222.34
2022-10-05T12:06:21.855Z,99213.44
2022-10-05T12:09:18.345Z,99211.53
2022-10-05T12:12:08.882Z,99201.84
2022-10-05T12:15:06.609Z,99209.63
2022-10-05T12:17:52.400Z,99208.63
2022-10-05T12:20:27.627Z,99203.22
2022-10-05T12:23:13.804Z,99209.41
2022-10-05T12:25:59.335Z,99205.78
2022-10-05T12:28:50.744Z,99202.34
2022-10-05T12:31:38.305Z,99198.88
2022-10-05T12:34:29.938Z,99199.53
2022-10-05T12:37:05.150Z,99196.00
2022-10-05T12:39:55.327Z,99203.00
2022-10-05T12:42:31.877Z,99195.03
2022-10-05T12:45:54.362Z,99190.59
2022-10-05T12:48:40.090Z,99197.69
2022-10-05T12:51:19.120Z,99192.25
2022-10-05T12:54:03.882Z,99185.28
2022-10-05T12:56:44.384Z,99174.66
2022-10-05T12:59:35.345Z,99173.91
2022-10-05T13:02:20.645Z,99162.44
2022-10-05T13:04:53.117Z,99173.13
2022-10-05T13:07:45.202Z,99176.75
2022-10-05T13:10:33.244Z,99173.25
2022-10-05T13:13:26.321Z,99173.25
2022-10-05T13:16:10.342Z,99157.66
2022-10-05T13:18:56.025Z,99167.94
2022-10-05T13:21:52.076Z,99167.22
2022-10-05T13:24:23.438Z,99171.56
2022-10-05T13:26:55.244Z,99169.03
2022-10-05T13:29:30.542Z,99167.22
2022-10-05T13:32:08.693Z,99168.06
2022-10-05T13:35:07.919Z,99165.41
2022-10-05T13:38:02.876Z,99162.75
2022-10-05T13:40:47.984Z,99161.91
2022-10-05T13:43:20.651Z,99148.63
2022-10-05T13:46:17.493Z,99152.22
2022-10-05T13:48:56.613Z,99155.75
2022-10-05T13:51:47.099Z,99151.41
2022-10-05T13:54:21.546Z,99157.66
2022-10-05T13:57:33.617Z,99163.94
2022-10-05T14:00:25.644Z,99159.47
2022-10-05T14:02:57.036Z,99153.31
2022-10-05T14:05:27.072Z,99142.69
2022-10-05T14:08:17.141Z,99139.19
2022-10-05T14:10:46.335Z,99135.59
2022-10-05T14:13:13.389Z,99138.25
2022-10-05T14:15:42.245Z,99132.94
2022-10-05T14:18:24.847Z,99132.06
2022-10-05T14:21:00.977Z,99117.94
2022-10-05T14:23:27.984Z,99131.22
2022-10-05T14:25:54.635Z,99125.91
2022-10-05T14:28:33.241Z,99126.88
2022-10-05T14:31:13.602Z,99122.41
2022-10-05T14:33:40.968Z,99118.78
2022-10-05T14:36:35.038Z,99115.41
2022-10-05T14:39:04.993Z,99113.94
2022-10-05T14:41:37.496Z,99125.78
2022-10-05T14:44:21.781Z,99101.03
2022-10-05T14:47:04.505Z,99122.31
2022-10-05T14:49:36.116Z,99115.75
2022-10-05T14:52:32.473Z,99119.66
2022-10-05T14:55:11.149Z,99116.13
2022-10-05T14:57:39.258Z,99111.69
2022-10-05T15:00:16.990Z,99110.81
2022-10-05T15:02:53.757Z,99106.13
2022-10-05T15:05:39.360Z,99108.69
2022-10-05T15:08:35.985Z,99103.78
2022-10-05T15:11:49.229Z,99106.09
2022-10-05T15:14:22.090Z,99101.41
2022-10-05T15:16:52.947Z,99094.38
2022-10-05T15:19:45.059Z,99098.75
2022-10-05T15:22:41.254Z,99102.34
2022-10-05T15:25:22.193Z,99100.44
2022-10-05T15:28:04.082Z,99094.38
2022-10-05T15:30:36.222Z,99089.41
2022-10-05T15:33:28.873Z,99087.38
2022-10-05T15:36:04.250Z,99090.84
2022-10-05T15:39:00.355Z,99090.78
2022-10-05T15:41:45.272Z,99086.16
2022-10-05T15:44:29.780Z,99085.00
2022-10-05T15:47:09.120Z,99085.59
2022-10-05T15:50:11.657Z,99079.91
2022-10-05T15:52:50.562Z,99084.13
2022-10-05T15:59:38.692Z,99095.28
2022-10-05T16:02:14.970Z,99083.09
2022-10-05T16:09:36.449Z,99083.78
2022-10-05T16:12:16.153Z,99078.44
2022-10-05T16:14:42.771Z,99059.28
2022-10-05T16:17:47.977Z,99074.25
2022-10-05T16:20:27.072Z,99073.03
2022-10-05T16:23:02.540Z,99074.47
2022-10-05T16:26:00.225Z,99071.41
2022-10-05T16:28:44.949Z,99069.22
2022-10-05T16:33:54.423Z,99070.13
2022-10-05T16:36:44.402Z,99077.59
2022-10-05T16:39:20.458Z,99068.41
2022-10-05T16:42:12.477Z,99064.38
2022-10-05T16:44:52.561Z,99069.19
2022-10-05T16:47:46.968Z,99071.22
2022-10-05T16:50:22.206Z,99058.25
2022-10-05T16:52:58.889Z,99068.13
2022-10-05T16:55:38.677Z,99070.16
2022-10-05T17:00:29.973Z,99066.03
2022-10-05T17:03:24.716Z,99060.84
2022-10-05T17:06:21.684Z,99060.72
2022-10-05T17:09:07.013Z,99060.50
2022-10-05T17:11:36.552Z,99053.38
2022-10-05T17:14:20.184Z,99061.00
2022-10-05T17:17:15.939Z,99056.22
2022-10-05T17:20:00.618Z,99054.22
2022-10-05T17:22:39.652Z,99047.84
2022-10-05T17:25:24.154Z,99052.94
2022-10-05T17:28:15.010Z,99052.69
2022-10-05T17:30:50.399Z,99047.28
2022-10-05T17:33:26.175Z,99045.47
2022-10-05T17:36:17.936Z,99042.69
2022-10-05T17:38:46.756Z,99046.22
2022-10-05T17:41:30.311Z,99049.56
2022-10-05T17:44:21.186Z,99041.41
2022-10-05T17:46:50.038Z,99047.44
2022-10-05T17:49:25.641Z,99040.31
2022-10-05T17:52:10.892Z,99046.38
2022-10-05T17:55:05.284Z,99045.28
2022-10-05T17:57:33.906Z,99033.56
2022-10-05T18:00:02.387Z,99045.91
2022-10-05T18:02:40.564Z,99045.78
2022-10-05T18:05:12.340Z,99049.19
2022-10-05T18:07:40.593Z,99051.72
2022-10-05T18:10:11.558Z,99049.91
2022-10-05T18:13:07.580Z,99049.81
2022-10-05T18:15:34.348Z,99052.47
2022-10-05T18:18:32.953Z,99047.16
2022-10-05T18:21:22.471Z,99040.03
2022-10-05T18:24:14.369Z,99039.19
2022-10-05T18:27:01.764Z,99029.41
2022-10-05T18:30:05.246Z,99041.84
2022-10-05T18:33:03.455Z,99047.25
2022-10-05T18:35:53.253Z,99042.78
2022-10-05T18:38:38.637Z,99048.94
2022-10-05T18:41:24.103Z,99051.59
2022-10-05T18:43:59.668Z,99049.91
2022-10-05T18:46:26.506Z,99053.41
2022-10-05T18:49:21.746Z,99049.91
2022-10-05T18:51:52.180Z,99049.06
2022-10-05T18:54:40.780Z,99044.59
2022-10-05T18:57:31.746Z,99050.75
2022-10-05T19:00:13.728Z,99053.53
2022-10-05T19:02:45.005Z,99059.69
2022-10-05T19:05:48.031Z,99066.56
2022-10-05T19:08:46.590Z,99061.88
2022-10-05T19:11:43.500Z,99062.50
2022-10-05T19:14:24.249Z,99062.25
2022-10-05T19:17:05.938Z,99067.34
2022-10-05T19:20:15.331Z,99066.25
2022-10-05T19:23:25.524Z,99067.00
2022-10-05T19:25:59.664Z,99058.06
2022-10-05T19:28:55.024Z,99070.38
2022-10-05T19:31:37.896Z,99071.94
2022-10-05T19:34:04.773Z,99067.50
2022-10-05T19:37:04.478Z,99065.56
2022-10-05T19:40:12.346Z,99070.88
2022-10-05T19:42:59.549Z,99015.59
2022-10-05T19:45:29.334Z,99072.56
2022-10-05T19:48:28.354Z,99071.59
2022-10-05T19:50:58.531Z,99081.38
2022-10-05T19:53:38.018Z,99075.13
2022-10-05T19:56:20.739Z,99078.47
2022-10-05T19:58:49.615Z,99051.91
2022-10-05T20:01:27.263Z,99074.03
2022-10-05T20:03:54.009Z,99073.06
2022-10-05T20:06:22.542Z,99070.41
2022-10-05T20:08:51.869Z,99074.78
2022-10-05T20:11:22.516Z,99075.63
2022-10-05T20:13:52.146Z,99081.78
2022-10-05T20:16:45.479Z,99070.63
2022-10-05T20:19:50.720Z,99083.47
2022-10-05T20:22:34.144Z,99086.13
2022-10-05T20:25:07.239Z,99087.09
2022-10-05T20:27:47.691Z,99087.97
2022-10-05T20:30:20.103Z,99088.66
2022-10-05T20:32:51.622Z,99083.34
2022-10-05T20:35:22.127Z,99087.72
2022-10-05T20:37:52.161Z,99085.91
2022-10-05T20:40:21.853Z,99085.78
2022-10-05T20:42:48.375Z,99083.97
2022-10-05T20:45:15.098Z,99093.66
2022-10-05T20:47:42.289Z,99080.34
2022-10-05T20:50:10.332Z,99092.69
2022-10-05T20:52:37.616Z,99083.75
2022-10-05T20:55:07.516Z,99085.44
2022-10-05T20:57:34.393Z,99088.94
2022-10-05T21:00:01.677Z,99088.94
2022-10-05T21:02:28.636Z,99085.31
2022-10-05T21:04:55.135Z,99089.69
2022-10-05T21:07:22.253Z,99095.84
2022-10-05T21:09:49.055Z,99082.53
2022-10-05T21:12:18.493Z,99069.84
2022-10-05T21:14:45.717Z,99091.38
2022-10-05T21:17:12.459Z,99086.06
2022-10-05T21:19:40.209Z,99084.25
2022-10-05T21:22:08.549Z,99077.97
2022-10-05T21:24:41.735Z,99092.22
2022-10-05T21:27:10.116Z,99092.22
2022-10-05T21:29:36.999Z,99084.38
2022-10-05T21:32:08.324Z,99079.88
2022-10-05T21:34:35.286Z,99080.84
2022-10-05T21:37:01.848Z,99080.75
2022-10-05T21:39:28.445Z,99079.88
2022-10-05T21:44:24.058Z,99096.69
2022-10-05T21:46:51.656Z,99093.31
2022-10-05T21:49:19.881Z,99095.97
2022-10-05T21:51:47.652Z,99094.25
2022-10-05T21:54:17.365Z,99088.13
2022-10-05T21:56:47.596Z,99101.41
2022-10-05T21:59:18.741Z,99091.84
2022-10-05T22:01:45.896Z,99093.53
2022-10-05T22:04:12.859Z,99092.69
2022-10-05T22:06:40.309Z,99095.34
2022-10-05T22:09:07.756Z,99088.19
2022-10-05T22:11:34.459Z,99089.19
2022-10-05T22:14:03.798Z,99085.66
2022-10-05T22:16:33.365Z,99085.53
2022-10-05T22:19:05.236Z,99080.34
2022-10-05T22:21:37.732Z,99079.53
2022-10-05T22:24:04.495Z,99082.19
2022-10-05T22:26:31.211Z,99083.00
2022-10-05T22:28:57.911Z,99075.19
2022-10-05T22:31:24.700Z,99082.19
2022-10-05T22:33:51.457Z,99078.66
2022-10-05T22:36:19.103Z,99071.56
2022-10-05T22:38:47.464Z,99074.44
2022-10-05T22:41:18.095Z,99071.66
2022-10-05T22:43:45.097Z,99059.06
2022-10-05T22:46:13.295Z,99078.66
2022-10-05T22:48:40.297Z,99072.72
2022-10-05T22:51:07.781Z,99083.97
2022-10-05T22:53:34.867Z,99075.94
2022-10-05T22:56:10.572Z,99089.28
2022-10-05T22:58:38.787Z,99089.53
2022-10-05T23:01:08.460Z,99095.56
2022-10-05T23:03:35.468Z,99098.34
2022-10-05T23:06:05.275Z,99101.00
2022-10-05T23:08:33.009Z,99103.53
2022-10-05T23:11:19.125Z,99105.34
2022-10-05T23:13:46.057Z,99104.53
2022-10-05T23:16:17.714Z,99108.97
2022-10-05T23:18:45.170Z,99108.13
2022-10-05T23:21:11.716Z,99096.25
2022-10-05T23:23:40.449Z,99110.78
2022-10-05T23:26:09.272Z,99124.06
2022-10-05T23:28:36.326Z,99121.41
2022-10-05T23:31:08.205Z,99112.56
2022-10-05T23:33:35.757Z,99113.78
2022-10-05T23:36:05.225Z,99125.84
2022-10-05T23:38:32.511Z,99129.50
2022-10-05T23:40:59.827Z,99133.00
2022-10-05T23:43:27.522Z,99136.59
2022-10-05T23:45:55.319Z,99138.44
2022-10-05T23:48:22.542Z,99134.81
2022-10-05T23:50:50.073Z,99139.25
2022-10-05T23:53:17.968Z,99142.88
2022-10-05T23:55:44.915Z,99150.84
2022-10-05T23:58:12.299Z,99150.00
